sensor_id;sensor_type;location;lat;lon;timestamp;temperature;humidity
25554;DHT22;13446;50.926;5.332;2023-07-29T00:00:52;21.10;99.90
25554;DHT22;13446;50.926;5.332;2023-07-29T00:03:17;21.10;99.90
25554;DHT22;13446;50.926;5.332;2023-07-29T00:05:43;21.10;99.90
25554;DHT22;13446;50.926;5.332;2023-07-29T00:08:09;21.20;99.90
25554;DHT22;13446;50.926;5.332;2023-07-29T00:10:37;21.20;99.90
25554;DHT22;13446;50.926;5.332;2023-07-29T00:13:03;21.20;99.90
25554;DHT22;13446;50.926;5.332;2023-07-29T00:15:29;21.20;99.90
25554;DHT22;13446;50.926;5.332;2023-07-29T00:17:54;21.10;99.90
25554;DHT22;13446;50.926;5.332;2023-07-29T00:20:20;21.20;99.90
25554;DHT22;13446;50.926;5.332;2023-07-29T00:22:45;21.20;99.90
25554;DHT22;13446;50.926;5.332;2023-07-29T00:25:11;21.20;99.90
25554;DHT22;13446;50.926;5.332;2023-07-29T00:27:37;21.20;99.90
25554;DHT22;13446;50.926;5.332;2023-07-29T00:30:02;21.10;99.90
25554;DHT22;13446;50.926;5.332;2023-07-29T00:32:29;21.10;99.90
25554;DHT22;13446;50.926;5.332;2023-07-29T00:34:54;21.10;99.90
25554;DHT22;13446;50.926;5.332;2023-07-29T00:37:20;21.10;99.90
25554;DHT22;13446;50.926;5.332;2023-07-29T00:39:46;21.20;99.90
25554;DHT22;13446;50.926;5.332;2023-07-29T00:42:11;21.20;99.90
25554;DHT22;13446;50.926;5.332;2023-07-29T00:44:37;21.10;99.90
25554;DHT22;13446;50.926;5.332;2023-07-29T00:47:03;21.10;99.90
25554;DHT22;13446;50.926;5.332;2023-07-29T00:49:30;21.10;99.90
25554;DHT22;13446;50.926;5.332;2023-07-29T00:51:55;21.10;99.90
25554;DHT22;13446;50.926;5.332;2023-07-29T00:54:21;21.10;99.90
25554;DHT22;13446;50.926;5.332;2023-07-29T00:56:47;21.00;99.90
25554;DHT22;13446;50.926;5.332;2023-07-29T00:59:12;21.10;99.90
25554;DHT22;13446;50.926;5.332;2023-07-29T01:01:38;21.10;99.90
25554;DHT22;13446;50.926;5.332;2023-07-29T01:04:04;21.10;99.90
25554;DHT22;13446;50.926;5.332;2023-07-29T01:09:34;21.10;99.90
25554;DHT22;13446;50.926;5.332;2023-07-29T01:14:34;21.00;99.90
25554;DHT22;13446;50.926;5.332;2023-07-29T01:17:03;21.10;99.90
25554;DHT22;13446;50.926;5.332;2023-07-29T01:19:48;21.10;99.90
25554;DHT22;13446;50.926;5.332;2023-07-29T01:22:21;21.10;99.90
25554;DHT22;13446;50.926;5.332;2023-07-29T01:24:46;21.10;99.90
25554;DHT22;13446;50.926;5.332;2023-07-29T01:27:12;21.10;99.90
25554;DHT22;13446;50.926;5.332;2023-07-29T01:29:37;21.10;99.90
25554;DHT22;13446;50.926;5.332;2023-07-29T01:34:52;21.00;99.90
25554;DHT22;13446;50.926;5.332;2023-07-29T01:37:19;20.90;99.90
25554;DHT22;13446;50.926;5.332;2023-07-29T01:39:48;21.00;99.90
25554;DHT22;13446;50.926;5.332;2023-07-29T01:42:14;21.00;99.90
25554;DHT22;13446;50.926;5.332;2023-07-29T01:44:41;21.00;99.90
25554;DHT22;13446;50.926;5.332;2023-07-29T01:47:08;21.00;99.90
25554;DHT22;13446;50.926;5.332;2023-07-29T01:49:33;20.90;99.90
25554;DHT22;13446;50.926;5.332;2023-07-29T01:51:59;21.00;99.90
25554;DHT22;13446;50.926;5.332;2023-07-29T01:54:24;21.00;99.90
25554;DHT22;13446;50.926;5.332;2023-07-29T01:56:50;20.90;99.90
25554;DHT22;13446;50.926;5.332;2023-07-29T01:59:16;20.70;99.90
25554;DHT22;13446;50.926;5.332;2023-07-29T02:01:42;20.70;99.90
25554;DHT22;13446;50.926;5.332;2023-07-29T02:04:08;20.70;99.90
25554;DHT22;13446;50.926;5.332;2023-07-29T02:06:33;20.60;99.90
25554;DHT22;13446;50.926;5.332;2023-07-29T02:08:59;20.50;99.90
25554;DHT22;13446;50.926;5.332;2023-07-29T02:11:24;20.50;99.90
25554;DHT22;13446;50.926;5.332;2023-07-29T02:13:55;20.50;99.90
25554;DHT22;13446;50.926;5.332;2023-07-29T02:16:21;20.50;99.90
25554;DHT22;13446;50.926;5.332;2023-07-29T02:18:48;20.40;99.90
25554;DHT22;13446;50.926;5.332;2023-07-29T02:21:15;20.40;99.90
25554;DHT22;13446;50.926;5.332;2023-07-29T02:23:40;20.30;99.90
25554;DHT22;13446;50.926;5.332;2023-07-29T02:26:06;20.40;99.90
25554;DHT22;13446;50.926;5.332;2023-07-29T02:28:31;20.30;99.90
25554;DHT22;13446;50.926;5.332;2023-07-29T02:33:41;20.10;99.90
25554;DHT22;13446;50.926;5.332;2023-07-29T02:36:07;20.10;99.90
25554;DHT22;13446;50.926;5.332;2023-07-29T02:38:32;20.10;99.90
25554;DHT22;13446;50.926;5.332;2023-07-29T02:40:58;20.10;99.90
25554;DHT22;13446;50.926;5.332;2023-07-29T02:43:23;20.00;99.90
25554;DHT22;13446;50.926;5.332;2023-07-29T02:45:49;20.00;99.90
25554;DHT22;13446;50.926;5.332;2023-07-29T02:48:14;20.00;99.90
25554;DHT22;13446;50.926;5.332;2023-07-29T02:50:40;20.00;99.90
25554;DHT22;13446;50.926;5.332;2023-07-29T02:53:06;19.90;99.90
25554;DHT22;13446;50.926;5.332;2023-07-29T02:55:31;19.90;99.90
25554;DHT22;13446;50.926;5.332;2023-07-29T02:57:57;19.90;99.90
25554;DHT22;13446;50.926;5.332;2023-07-29T03:00:22;19.90;99.90
25554;DHT22;13446;50.926;5.332;2023-07-29T03:02:49;19.90;99.90
25554;DHT22;13446;50.926;5.332;2023-07-29T03:05:14;19.80;99.90
25554;DHT22;13446;50.926;5.332;2023-07-29T03:07:40;19.70;99.90
25554;DHT22;13446;50.926;5.332;2023-07-29T03:10:06;19.60;99.90
25554;DHT22;13446;50.926;5.332;2023-07-29T03:12:31;19.60;99.90
25554;DHT22;13446;50.926;5.332;2023-07-29T03:14:57;19.60;99.90
25554;DHT22;13446;50.926;5.332;2023-07-29T03:17:22;19.60;99.90
25554;DHT22;13446;50.926;5.332;2023-07-29T03:19:48;19.50;99.90
25554;DHT22;13446;50.926;5.332;2023-07-29T03:22:13;19.50;99.90
25554;DHT22;13446;50.926;5.332;2023-07-29T03:24:39;19.40;99.90
25554;DHT22;13446;50.926;5.332;2023-07-29T03:27:05;19.40;99.90
25554;DHT22;13446;50.926;5.332;2023-07-29T03:29:30;19.40;99.90
25554;DHT22;13446;50.926;5.332;2023-07-29T03:31:56;19.30;99.90
25554;DHT22;13446;50.926;5.332;2023-07-29T03:34:21;19.20;99.90
25554;DHT22;13446;50.926;5.332;2023-07-29T03:36:47;19.20;99.90
25554;DHT22;13446;50.926;5.332;2023-07-29T03:39:16;19.30;99.90
25554;DHT22;13446;50.926;5.332;2023-07-29T03:41:42;19.20;99.90
25554;DHT22;13446;50.926;5.332;2023-07-29T03:44:08;19.20;99.90
25554;DHT22;13446;50.926;5.332;2023-07-29T03:46:33;19.10;99.90
25554;DHT22;13446;50.926;5.332;2023-07-29T03:48:59;19.20;99.90
25554;DHT22;13446;50.926;5.332;2023-07-29T03:51:24;19.20;99.90
25554;DHT22;13446;50.926;5.332;2023-07-29T03:53:50;19.10;99.90
25554;DHT22;13446;50.926;5.332;2023-07-29T03:56:15;19.20;99.90
25554;DHT22;13446;50.926;5.332;2023-07-29T03:58:41;19.10;99.90
25554;DHT22;13446;50.926;5.332;2023-07-29T04:01:06;19.10;99.90
25554;DHT22;13446;50.926;5.332;2023-07-29T04:03:33;19.00;99.90
25554;DHT22;13446;50.926;5.332;2023-07-29T04:05:59;19.00;99.90
25554;DHT22;13446;50.926;5.332;2023-07-29T04:08:24;19.10;99.90
25554;DHT22;13446;50.926;5.332;2023-07-29T04:10:50;19.00;99.90
25554;DHT22;13446;50.926;5.332;2023-07-29T04:13:15;19.00;99.90
25554;DHT22;13446;50.926;5.332;2023-07-29T04:15:41;19.00;99.90
25554;DHT22;13446;50.926;5.332;2023-07-29T04:18:07;19.00;99.90
25554;DHT22;13446;50.926;5.332;2023-07-29T04:20:32;19.00;99.90
25554;DHT22;13446;50.926;5.332;2023-07-29T04:22:59;19.10;99.90
25554;DHT22;13446;50.926;5.332;2023-07-29T04:25:24;19.20;99.90
25554;DHT22;13446;50.926;5.332;2023-07-29T04:27:50;19.30;99.90
25554;DHT22;13446;50.926;5.332;2023-07-29T04:30:15;19.20;99.90
25554;DHT22;13446;50.926;5.332;2023-07-29T04:32:41;19.20;99.90
25554;DHT22;13446;50.926;5.332;2023-07-29T04:35:10;19.10;99.90
25554;DHT22;13446;50.926;5.332;2023-07-29T04:37:36;19.10;99.90
25554;DHT22;13446;50.926;5.332;2023-07-29T04:40:01;19.10;99.90
25554;DHT22;13446;50.926;5.332;2023-07-29T04:42:27;19.30;99.90
25554;DHT22;13446;50.926;5.332;2023-07-29T04:44:53;19.20;99.90
25554;DHT22;13446;50.926;5.332;2023-07-29T04:47:18;19.20;99.90
25554;DHT22;13446;50.926;5.332;2023-07-29T04:49:44;19.30;99.90
25554;DHT22;13446;50.926;5.332;2023-07-29T04:52:09;19.20;99.90
25554;DHT22;13446;50.926;5.332;2023-07-29T04:54:35;19.20;99.90
25554;DHT22;13446;50.926;5.332;2023-07-29T04:57:00;19.20;99.90
25554;DHT22;13446;50.926;5.332;2023-07-29T04:59:26;19.10;99.90
25554;DHT22;13446;50.926;5.332;2023-07-29T05:01:51;19.20;99.90
25554;DHT22;13446;50.926;5.332;2023-07-29T05:04:17;19.20;99.90
25554;DHT22;13446;50.926;5.332;2023-07-29T05:06:42;19.10;99.90
25554;DHT22;13446;50.926;5.332;2023-07-29T05:09:18;19.20;99.90
25554;DHT22;13446;50.926;5.332;2023-07-29T05:11:44;19.20;99.90
25554;DHT22;13446;50.926;5.332;2023-07-29T05:14:12;19.20;99.90
25554;DHT22;13446;50.926;5.332;2023-07-29T05:16:38;19.20;99.90
25554;DHT22;13446;50.926;5.332;2023-07-29T05:19:03;19.20;99.90
25554;DHT22;13446;50.926;5.332;2023-07-29T05:21:29;19.10;99.90
25554;DHT22;13446;50.926;5.332;2023-07-29T05:23:55;19.10;99.90
25554;DHT22;13446;50.926;5.332;2023-07-29T05:26:20;19.30;99.90
25554;DHT22;13446;50.926;5.332;2023-07-29T05:28:46;19.40;99.90
25554;DHT22;13446;50.926;5.332;2023-07-29T05:31:11;19.50;99.90
25554;DHT22;13446;50.926;5.332;2023-07-29T05:33:37;19.80;99.90
25554;DHT22;13446;50.926;5.332;2023-07-29T05:36:02;19.90;99.90
25554;DHT22;13446;50.926;5.332;2023-07-29T05:38:28;19.90;99.90
25554;DHT22;13446;50.926;5.332;2023-07-29T05:40:53;20.00;99.90
25554;DHT22;13446;50.926;5.332;2023-07-29T05:43:19;20.10;99.90
25554;DHT22;13446;50.926;5.332;2023-07-29T05:45:44;20.10;99.90
25554;DHT22;13446;50.926;5.332;2023-07-29T05:48:10;20.20;99.90
25554;DHT22;13446;50.926;5.332;2023-07-29T05:50:35;20.20;99.90
25554;DHT22;13446;50.926;5.332;2023-07-29T05:53:01;20.20;99.90
25554;DHT22;13446;50.926;5.332;2023-07-29T05:55:27;20.30;99.90
25554;DHT22;13446;50.926;5.332;2023-07-29T05:57:52;20.30;99.90
25554;DHT22;13446;50.926;5.332;2023-07-29T06:00:18;20.20;99.90
25554;DHT22;13446;50.926;5.332;2023-07-29T06:02:44;20.20;99.90
25554;DHT22;13446;50.926;5.332;2023-07-29T06:05:09;20.40;99.90
25554;DHT22;13446;50.926;5.332;2023-07-29T06:07:35;20.50;99.90
25554;DHT22;13446;50.926;5.332;2023-07-29T06:10:00;20.90;99.90
25554;DHT22;13446;50.926;5.332;2023-07-29T06:12:26;21.00;99.90
25554;DHT22;13446;50.926;5.332;2023-07-29T06:14:52;21.00;99.90
25554;DHT22;13446;50.926;5.332;2023-07-29T06:17:17;21.10;99.90
25554;DHT22;13446;50.926;5.332;2023-07-29T06:19:43;21.10;99.90
25554;DHT22;13446;50.926;5.332;2023-07-29T06:22:09;21.40;99.90
25554;DHT22;13446;50.926;5.332;2023-07-29T06:24:35;22.40;99.90
25554;DHT22;13446;50.926;5.332;2023-07-29T06:27:00;22.90;99.90
25554;DHT22;13446;50.926;5.332;2023-07-29T06:29:27;23.00;99.90
25554;DHT22;13446;50.926;5.332;2023-07-29T06:31:52;23.00;99.90
25554;DHT22;13446;50.926;5.332;2023-07-29T06:34:19;23.30;99.90
25554;DHT22;13446;50.926;5.332;2023-07-29T06:36:45;24.00;99.90
25554;DHT22;13446;50.926;5.332;2023-07-29T06:39:10;24.60;99.90
25554;DHT22;13446;50.926;5.332;2023-07-29T06:41:36;25.00;99.90
25554;DHT22;13446;50.926;5.332;2023-07-29T06:44:01;25.40;99.90
25554;DHT22;13446;50.926;5.332;2023-07-29T06:46:27;25.70;99.90
25554;DHT22;13446;50.926;5.332;2023-07-29T06:48:53;25.80;99.90
25554;DHT22;13446;50.926;5.332;2023-07-29T06:51:18;25.90;99.90
25554;DHT22;13446;50.926;5.332;2023-07-29T06:53:44;26.10;99.90
25554;DHT22;13446;50.926;5.332;2023-07-29T06:56:09;27.20;99.90
25554;DHT22;13446;50.926;5.332;2023-07-29T06:58:35;28.10;99.90
25554;DHT22;13446;50.926;5.332;2023-07-29T07:01:00;28.80;99.90
25554;DHT22;13446;50.926;5.332;2023-07-29T07:03:26;29.70;99.90
25554;DHT22;13446;50.926;5.332;2023-07-29T07:05:51;30.40;99.90
25554;DHT22;13446;50.926;5.332;2023-07-29T07:08:17;29.70;96.80
25554;DHT22;13446;50.926;5.332;2023-07-29T07:10:43;29.10;98.20
25554;DHT22;13446;50.926;5.332;2023-07-29T07:13:08;28.30;99.90
25554;DHT22;13446;50.926;5.332;2023-07-29T07:15:34;27.90;99.90
25554;DHT22;13446;50.926;5.332;2023-07-29T07:17:59;27.70;99.90
25554;DHT22;13446;50.926;5.332;2023-07-29T07:20:25;27.40;99.90
25554;DHT22;13446;50.926;5.332;2023-07-29T07:22:50;27.00;99.90
25554;DHT22;13446;50.926;5.332;2023-07-29T07:25:16;26.80;99.90
25554;DHT22;13446;50.926;5.332;2023-07-29T07:27:41;26.40;99.90
25554;DHT22;13446;50.926;5.332;2023-07-29T07:30:07;26.00;99.90
25554;DHT22;13446;50.926;5.332;2023-07-29T07:32:33;25.50;99.90
25554;DHT22;13446;50.926;5.332;2023-07-29T07:34:58;25.10;99.90
25554;DHT22;13446;50.926;5.332;2023-07-29T07:37:24;24.80;99.90
25554;DHT22;13446;50.926;5.332;2023-07-29T07:39:50;24.80;99.90
25554;DHT22;13446;50.926;5.332;2023-07-29T07:42:15;25.40;99.90
25554;DHT22;13446;50.926;5.332;2023-07-29T07:44:41;26.50;99.90
25554;DHT22;13446;50.926;5.332;2023-07-29T07:47:06;26.60;99.90
25554;DHT22;13446;50.926;5.332;2023-07-29T07:49:33;26.30;99.90
25554;DHT22;13446;50.926;5.332;2023-07-29T07:51:59;26.00;99.90
25554;DHT22;13446;50.926;5.332;2023-07-29T07:54:24;25.80;99.90
25554;DHT22;13446;50.926;5.332;2023-07-29T07:56:50;25.60;99.90
25554;DHT22;13446;50.926;5.332;2023-07-29T07:59:15;25.20;99.90
25554;DHT22;13446;50.926;5.332;2023-07-29T08:01:41;25.00;99.90
25554;DHT22;13446;50.926;5.332;2023-07-29T08:04:06;25.00;99.90
25554;DHT22;13446;50.926;5.332;2023-07-29T08:06:32;25.20;99.90
25554;DHT22;13446;50.926;5.332;2023-07-29T08:08:58;25.70;99.90
25554;DHT22;13446;50.926;5.332;2023-07-29T08:11:24;26.70;99.90
25554;DHT22;13446;50.926;5.332;2023-07-29T08:13:49;27.20;99.90
25554;DHT22;13446;50.926;5.332;2023-07-29T08:16:15;27.30;99.90
25554;DHT22;13446;50.926;5.332;2023-07-29T08:18:40;27.00;99.90
25554;DHT22;13446;50.926;5.332;2023-07-29T08:21:06;27.20;99.90
25554;DHT22;13446;50.926;5.332;2023-07-29T08:23:32;27.30;99.90
25554;DHT22;13446;50.926;5.332;2023-07-29T08:25:59;27.00;99.90
25554;DHT22;13446;50.926;5.332;2023-07-29T08:28:30;26.60;99.90
25554;DHT22;13446;50.926;5.332;2023-07-29T08:30:55;26.20;99.90
25554;DHT22;13446;50.926;5.332;2023-07-29T08:33:21;25.60;99.90
25554;DHT22;13446;50.926;5.332;2023-07-29T08:35:47;25.50;99.90
25554;DHT22;13446;50.926;5.332;2023-07-29T08:38:12;25.30;99.90
25554;DHT22;13446;50.926;5.332;2023-07-29T08:40:41;25.30;99.90
25554;DHT22;13446;50.926;5.332;2023-07-29T08:43:07;25.40;99.90
25554;DHT22;13446;50.926;5.332;2023-07-29T08:45:34;25.80;99.90
25554;DHT22;13446;50.926;5.332;2023-07-29T08:48:00;26.20;99.90
25554;DHT22;13446;50.926;5.332;2023-07-29T08:50:27;26.70;99.90
25554;DHT22;13446;50.926;5.332;2023-07-29T08:52:53;27.70;99.90
25554;DHT22;13446;50.926;5.332;2023-07-29T08:55:19;28.30;99.90
25554;DHT22;13446;50.926;5.332;2023-07-29T08:57:45;29.00;99.70
25554;DHT22;13446;50.926;5.332;2023-07-29T09:00:11;29.40;98.90
25554;DHT22;13446;50.926;5.332;2023-07-29T09:02:36;29.30;98.50
25554;DHT22;13446;50.926;5.332;2023-07-29T09:05:02;29.30;97.60
25554;DHT22;13446;50.926;5.332;2023-07-29T09:07:28;29.10;98.70
25554;DHT22;13446;50.926;5.332;2023-07-29T09:09:54;29.30;97.10
25554;DHT22;13446;50.926;5.332;2023-07-29T09:12:19;29.70;96.50
25554;DHT22;13446;50.926;5.332;2023-07-29T09:14:45;30.70;95.20
25554;DHT22;13446;50.926;5.332;2023-07-29T09:17:10;30.70;93.20
25554;DHT22;13446;50.926;5.332;2023-07-29T09:19:36;31.00;92.90
25554;DHT22;13446;50.926;5.332;2023-07-29T09:22:02;31.10;91.40
25554;DHT22;13446;50.926;5.332;2023-07-29T09:24:28;31.60;90.20
25554;DHT22;13446;50.926;5.332;2023-07-29T09:26:57;31.50;89.70
25554;DHT22;13446;50.926;5.332;2023-07-29T09:29:23;31.40;85.10
25554;DHT22;13446;50.926;5.332;2023-07-29T09:31:49;31.00;89.20
25554;DHT22;13446;50.926;5.332;2023-07-29T09:34:15;31.20;86.70
25554;DHT22;13446;50.926;5.332;2023-07-29T09:36:41;30.60;89.20
25554;DHT22;13446;50.926;5.332;2023-07-29T09:39:10;30.10;91.50
25554;DHT22;13446;50.926;5.332;2023-07-29T09:41:36;29.60;91.00
25554;DHT22;13446;50.926;5.332;2023-07-29T09:44:02;29.20;92.20
25554;DHT22;13446;50.926;5.332;2023-07-29T09:46:34;28.70;92.90
25554;DHT22;13446;50.926;5.332;2023-07-29T09:49:02;28.20;93.70
25554;DHT22;13446;50.926;5.332;2023-07-29T09:51:27;27.80;95.50
25554;DHT22;13446;50.926;5.332;2023-07-29T09:53:53;28.20;96.50
25554;DHT22;13446;50.926;5.332;2023-07-29T09:56:18;29.90;94.90
25554;DHT22;13446;50.926;5.332;2023-07-29T09:58:49;32.00;90.70
25554;DHT22;13446;50.926;5.332;2023-07-29T10:01:15;34.30;79.70
25554;DHT22;13446;50.926;5.332;2023-07-29T10:03:41;35.20;70.50
25554;DHT22;13446;50.926;5.332;2023-07-29T10:06:06;36.40;63.90
25554;DHT22;13446;50.926;5.332;2023-07-29T10:08:32;36.60;60.00
25554;DHT22;13446;50.926;5.332;2023-07-29T10:11:01;36.00;59.70
25554;DHT22;13446;50.926;5.332;2023-07-29T10:13:28;36.00;59.90
25554;DHT22;13446;50.926;5.332;2023-07-29T10:15:54;35.50;60.30
25554;DHT22;13446;50.926;5.332;2023-07-29T10:18:21;35.10;60.10
25554;DHT22;13446;50.926;5.332;2023-07-29T10:20:48;34.00;62.60
25554;DHT22;13446;50.926;5.332;2023-07-29T10:23:15;33.10;65.20
25554;DHT22;13446;50.926;5.332;2023-07-29T10:25:43;32.30;68.50
25554;DHT22;13446;50.926;5.332;2023-07-29T10:28:12;32.50;73.50
25554;DHT22;13446;50.926;5.332;2023-07-29T10:30:38;32.30;72.20
25554;DHT22;13446;50.926;5.332;2023-07-29T10:33:04;31.80;72.80
25554;DHT22;13446;50.926;5.332;2023-07-29T10:35:30;31.70;74.50
25554;DHT22;13446;50.926;5.332;2023-07-29T10:37:57;31.40;74.70
25554;DHT22;13446;50.926;5.332;2023-07-29T10:40:22;32.30;72.30
25554;DHT22;13446;50.926;5.332;2023-07-29T10:43:48;33.10;68.90
25554;DHT22;13446;50.926;5.332;2023-07-29T10:45:43;32.80;67.20
25554;DHT22;13446;50.926;5.332;2023-07-29T10:48:12;32.20;71.40
25554;DHT22;13446;50.926;5.332;2023-07-29T10:50:37;31.80;73.70
25554;DHT22;13446;50.926;5.332;2023-07-29T10:53:03;31.20;74.30
25554;DHT22;13446;50.926;5.332;2023-07-29T10:55:30;30.40;74.90
25554;DHT22;13446;50.926;5.332;2023-07-29T10:58:04;29.70;78.50
25554;DHT22;13446;50.926;5.332;2023-07-29T11:00:30;28.90;84.50
25554;DHT22;13446;50.926;5.332;2023-07-29T11:03:00;28.40;89.20
25554;DHT22;13446;50.926;5.332;2023-07-29T11:05:44;27.80;95.70
25554;DHT22;13446;50.926;5.332;2023-07-29T11:10:57;26.80;99.90
25554;DHT22;13446;50.926;5.332;2023-07-29T11:13:23;26.70;99.90
25554;DHT22;13446;50.926;5.332;2023-07-29T11:15:48;26.60;99.90
25554;DHT22;13446;50.926;5.332;2023-07-29T11:18:15;26.40;99.90
25554;DHT22;13446;50.926;5.332;2023-07-29T11:20:41;26.10;99.90
25554;DHT22;13446;50.926;5.332;2023-07-29T11:23:06;25.90;99.90
25554;DHT22;13446;50.926;5.332;2023-07-29T11:25:32;25.90;99.90
25554;DHT22;13446;50.926;5.332;2023-07-29T11:27:59;25.70;99.90
25554;DHT22;13446;50.926;5.332;2023-07-29T11:30:25;25.40;99.90
25554;DHT22;13446;50.926;5.332;2023-07-29T11:32:55;24.80;99.90
25554;DHT22;13446;50.926;5.332;2023-07-29T11:35:21;24.30;99.90
25554;DHT22;13446;50.926;5.332;2023-07-29T11:37:47;24.10;99.90
25554;DHT22;13446;50.926;5.332;2023-07-29T11:40:22;23.80;99.90
25554;DHT22;13446;50.926;5.332;2023-07-29T11:42:49;23.60;99.90
25554;DHT22;13446;50.926;5.332;2023-07-29T11:45:17;23.30;99.90
25554;DHT22;13446;50.926;5.332;2023-07-29T11:47:55;23.30;99.90
25554;DHT22;13446;50.926;5.332;2023-07-29T11:50:21;23.30;99.90
25554;DHT22;13446;50.926;5.332;2023-07-29T11:52:46;23.30;99.90
25554;DHT22;13446;50.926;5.332;2023-07-29T11:55:12;23.20;99.90
25554;DHT22;13446;50.926;5.332;2023-07-29T11:57:39;23.20;99.90
25554;DHT22;13446;50.926;5.332;2023-07-29T12:00:08;23.20;99.90
25554;DHT22;13446;50.926;5.332;2023-07-29T12:02:39;23.10;99.90
25554;DHT22;13446;50.926;5.332;2023-07-29T12:05:05;23.00;99.90
25554;DHT22;13446;50.926;5.332;2023-07-29T12:07:36;23.10;99.90
25554;DHT22;13446;50.926;5.332;2023-07-29T12:10:03;23.00;99.90
25554;DHT22;13446;50.926;5.332;2023-07-29T12:12:29;23.30;99.90
25554;DHT22;13446;50.926;5.332;2023-07-29T12:14:55;23.50;99.90
25554;DHT22;13446;50.926;5.332;2023-07-29T12:17:20;23.40;99.90
25554;DHT22;13446;50.926;5.332;2023-07-29T12:19:46;23.50;99.90
25554;DHT22;13446;50.926;5.332;2023-07-29T12:22:11;23.50;99.90
25554;DHT22;13446;50.926;5.332;2023-07-29T12:24:38;23.50;99.90
25554;DHT22;13446;50.926;5.332;2023-07-29T12:27:04;23.20;99.90
25554;DHT22;13446;50.926;5.332;2023-07-29T12:29:30;23.10;99.90
25554;DHT22;13446;50.926;5.332;2023-07-29T12:31:59;22.70;99.90
25554;DHT22;13446;50.926;5.332;2023-07-29T12:34:26;22.60;99.90
25554;DHT22;13446;50.926;5.332;2023-07-29T12:36:52;22.40;99.90
25554;DHT22;13446;50.926;5.332;2023-07-29T12:39:20;22.20;99.90
25554;DHT22;13446;50.926;5.332;2023-07-29T12:41:46;22.00;99.90
25554;DHT22;13446;50.926;5.332;2023-07-29T12:44:11;21.90;99.90
25554;DHT22;13446;50.926;5.332;2023-07-29T12:46:37;21.80;99.90
25554;DHT22;13446;50.926;5.332;2023-07-29T12:49:03;22.10;99.90
25554;DHT22;13446;50.926;5.332;2023-07-29T12:51:28;22.90;99.90
25554;DHT22;13446;50.926;5.332;2023-07-29T12:53:54;23.30;99.90
25554;DHT22;13446;50.926;5.332;2023-07-29T12:56:19;23.00;99.90
25554;DHT22;13446;50.926;5.332;2023-07-29T12:58:45;23.00;99.90
25554;DHT22;13446;50.926;5.332;2023-07-29T13:01:11;23.40;99.90
25554;DHT22;13446;50.926;5.332;2023-07-29T13:03:42;24.40;99.90
25554;DHT22;13446;50.926;5.332;2023-07-29T13:06:07;24.60;99.90
25554;DHT22;13446;50.926;5.332;2023-07-29T13:08:33;24.40;99.90
25554;DHT22;13446;50.926;5.332;2023-07-29T13:10:58;24.30;99.90
25554;DHT22;13446;50.926;5.332;2023-07-29T13:13:24;24.20;99.90
25554;DHT22;13446;50.926;5.332;2023-07-29T13:15:50;24.40;99.90
25554;DHT22;13446;50.926;5.332;2023-07-29T13:18:15;24.70;99.90
25554;DHT22;13446;50.926;5.332;2023-07-29T13:20:41;25.70;99.90
25554;DHT22;13446;50.926;5.332;2023-07-29T13:23:06;25.90;99.90
25554;DHT22;13446;50.926;5.332;2023-07-29T13:25:32;25.90;99.90
25554;DHT22;13446;50.926;5.332;2023-07-29T13:27:57;25.80;99.90
25554;DHT22;13446;50.926;5.332;2023-07-29T13:30:23;25.50;99.90
25554;DHT22;13446;50.926;5.332;2023-07-29T13:32:48;25.40;99.90
25554;DHT22;13446;50.926;5.332;2023-07-29T13:35:14;25.20;99.90
25554;DHT22;13446;50.926;5.332;2023-07-29T13:37:40;25.20;99.90
25554;DHT22;13446;50.926;5.332;2023-07-29T13:40:05;25.30;99.90
25554;DHT22;13446;50.926;5.332;2023-07-29T13:42:32;25.20;99.90
25554;DHT22;13446;50.926;5.332;2023-07-29T13:44:58;25.00;99.90
25554;DHT22;13446;50.926;5.332;2023-07-29T13:47:23;24.90;99.90
25554;DHT22;13446;50.926;5.332;2023-07-29T13:49:49;24.90;99.90
25554;DHT22;13446;50.926;5.332;2023-07-29T13:52:14;24.90;99.90
25554;DHT22;13446;50.926;5.332;2023-07-29T13:54:40;25.00;99.90
25554;DHT22;13446;50.926;5.332;2023-07-29T13:57:06;25.30;99.90
25554;DHT22;13446;50.926;5.332;2023-07-29T13:59:32;25.50;99.90
25554;DHT22;13446;50.926;5.332;2023-07-29T14:01:58;25.70;99.90
25554;DHT22;13446;50.926;5.332;2023-07-29T14:04:23;26.00;99.90
25554;DHT22;13446;50.926;5.332;2023-07-29T14:06:49;26.30;99.90
25554;DHT22;13446;50.926;5.332;2023-07-29T14:09:14;26.30;99.90
25554;DHT22;13446;50.926;5.332;2023-07-29T14:11:40;26.20;99.90
25554;DHT22;13446;50.926;5.332;2023-07-29T14:14:06;26.10;99.90
25554;DHT22;13446;50.926;5.332;2023-07-29T14:16:32;26.30;99.90
25554;DHT22;13446;50.926;5.332;2023-07-29T14:18:57;26.40;99.90
25554;DHT22;13446;50.926;5.332;2023-07-29T14:21:23;26.50;99.90
25554;DHT22;13446;50.926;5.332;2023-07-29T14:23:48;26.40;99.90
25554;DHT22;13446;50.926;5.332;2023-07-29T14:26:14;26.50;99.90
25554;DHT22;13446;50.926;5.332;2023-07-29T14:28:40;26.70;99.90
25554;DHT22;13446;50.926;5.332;2023-07-29T14:31:05;26.90;99.90
25554;DHT22;13446;50.926;5.332;2023-07-29T14:33:31;26.90;99.90
25554;DHT22;13446;50.926;5.332;2023-07-29T14:35:56;27.20;99.90
25554;DHT22;13446;50.926;5.332;2023-07-29T14:38:22;27.10;99.90
25554;DHT22;13446;50.926;5.332;2023-07-29T14:40:47;27.10;99.90
25554;DHT22;13446;50.926;5.332;2023-07-29T14:43:13;27.10;99.90
25554;DHT22;13446;50.926;5.332;2023-07-29T14:45:38;27.10;99.90
25554;DHT22;13446;50.926;5.332;2023-07-29T14:48:04;27.20;99.90
25554;DHT22;13446;50.926;5.332;2023-07-29T14:50:30;27.00;99.90
25554;DHT22;13446;50.926;5.332;2023-07-29T14:52:55;27.00;99.90
25554;DHT22;13446;50.926;5.332;2023-07-29T14:55:21;26.90;99.90
25554;DHT22;13446;50.926;5.332;2023-07-29T14:57:48;26.70;99.90
25554;DHT22;13446;50.926;5.332;2023-07-29T15:00:14;26.50;99.90
25554;DHT22;13446;50.926;5.332;2023-07-29T15:02:40;26.30;99.90
25554;DHT22;13446;50.926;5.332;2023-07-29T15:05:06;26.20;99.90
25554;DHT22;13446;50.926;5.332;2023-07-29T15:07:31;26.30;99.90
25554;DHT22;13446;50.926;5.332;2023-07-29T15:09:57;26.30;99.90
25554;DHT22;13446;50.926;5.332;2023-07-29T15:12:29;26.40;99.90
25554;DHT22;13446;50.926;5.332;2023-07-29T15:14:54;26.30;99.90
25554;DHT22;13446;50.926;5.332;2023-07-29T15:17:20;26.40;99.90
25554;DHT22;13446;50.926;5.332;2023-07-29T15:19:45;26.50;99.90
25554;DHT22;13446;50.926;5.332;2023-07-29T15:22:15;26.40;99.90
25554;DHT22;13446;50.926;5.332;2023-07-29T15:24:41;26.30;99.90
25554;DHT22;13446;50.926;5.332;2023-07-29T15:27:09;26.30;99.90
25554;DHT22;13446;50.926;5.332;2023-07-29T15:29:34;26.30;99.90
25554;DHT22;13446;50.926;5.332;2023-07-29T15:32:00;26.20;99.90
25554;DHT22;13446;50.926;5.332;2023-07-29T15:34:25;26.20;99.90
25554;DHT22;13446;50.926;5.332;2023-07-29T15:36:51;26.00;99.90